createdAt,value
2023-05-03T00:01:44.350Z,13.57
2023-05-03T00:04:11.722Z,13.75
2023-05-03T00:06:38.747Z,13.15
2023-05-03T00:09:05.758Z,13.50
2023-05-03T00:11:33.913Z,13.23
2023-05-03T00:14:01.216Z,12.68
2023-05-03T00:16:28.199Z,13.02
2023-05-03T00:18:55.356Z,12.90
2023-05-03T00:21:22.325Z,14.35
2023-05-03T00:23:49.231Z,14.05
2023-05-03T00:26:16.260Z,12.20
2023-05-03T00:28:43.182Z,13.25
2023-05-03T00:31:11.245Z,13.02
2023-05-03T00:33:39.702Z,11.85
2023-05-03T00:36:11.697Z,12.82
2023-05-03T00:38:39.346Z,12.82
2023-05-03T00:41:07.112Z,11.85
2023-05-03T00:43:35.597Z,12.10
2023-05-03T00:46:15.921Z,15.23
2023-05-03T00:48:46.946Z,13.73
2023-05-03T00:51:15.386Z,12.02
2023-05-03T00:53:43.604Z,12.48
2023-05-03T00:56:12.197Z,14.48
2023-05-03T00:58:40.688Z,12.32
2023-05-03T01:01:08.374Z,13.85
2023-05-03T01:03:38.098Z,11.65
2023-05-03T01:08:58.904Z,12.80
2023-05-03T01:11:44.827Z,11.90
2023-05-03T01:14:39.116Z,14.40
2023-05-03T01:17:12.173Z,10.75
2023-05-03T01:19:51.702Z,16.62
2023-05-03T01:22:36.484Z,14.30
2023-05-03T01:25:09.456Z,11.07
2023-05-03T01:27:37.584Z,12.52
2023-05-03T01:30:06.226Z,12.75
2023-05-03T01:32:43.926Z,14.30
2023-05-03T01:35:40.834Z,14.50
2023-05-03T01:38:09.032Z,12.20
2023-05-03T01:40:50.049Z,13.68
2023-05-03T01:43:18.582Z,13.45
2023-05-03T01:45:46.203Z,14.13
2023-05-03T01:48:17.252Z,13.90
2023-05-03T01:50:44.852Z,13.25
2023-05-03T01:53:12.160Z,12.27
2023-05-03T01:55:39.148Z,13.68
2023-05-03T01:58:06.522Z,13.27
2023-05-03T02:00:33.781Z,11.85
2023-05-03T02:03:00.833Z,13.55
2023-05-03T02:05:27.833Z,13.62
2023-05-03T02:07:54.827Z,12.65
2023-05-03T02:10:21.795Z,13.57
2023-05-03T02:12:48.850Z,12.40
2023-05-03T02:15:15.830Z,11.25
2023-05-03T02:17:43.461Z,12.77
2023-05-03T02:20:10.722Z,13.27
2023-05-03T02:22:37.624Z,12.40
2023-05-03T02:25:05.411Z,12.70
2023-05-03T02:27:32.446Z,11.82
2023-05-03T02:29:59.412Z,13.68
2023-05-03T02:32:26.546Z,13.45
2023-05-03T02:34:54.885Z,12.60
2023-05-03T02:37:21.798Z,11.63
2023-05-03T02:39:48.724Z,11.55
2023-05-03T02:42:16.445Z,11.68
2023-05-03T02:44:43.354Z,12.18
2023-05-03T02:47:10.762Z,12.37
2023-05-03T02:49:37.756Z,10.63
2023-05-03T02:52:04.736Z,12.82
2023-05-03T02:54:31.660Z,11.35
2023-05-03T02:56:58.758Z,10.63
2023-05-03T02:59:25.643Z,12.10
2023-05-03T03:01:52.569Z,11.00
2023-05-03T03:04:19.615Z,10.00
2023-05-03T03:06:46.992Z,11.35
2023-05-03T03:09:13.936Z,12.10
2023-05-03T03:11:41.539Z,11.00
2023-05-03T03:14:08.456Z,11.50
2023-05-03T03:16:35.585Z,10.30
2023-05-03T03:19:02.563Z,11.95
2023-05-03T03:21:29.858Z,11.07
2023-05-03T03:23:57.138Z,11.18
2023-05-03T03:26:24.642Z,13.90
2023-05-03T03:28:52.149Z,9.95
2023-05-03T03:31:19.057Z,11.35
2023-05-03T03:33:46.498Z,10.27
2023-05-03T03:36:13.590Z,10.05
2023-05-03T03:38:41.458Z,11.32
2023-05-03T03:41:08.784Z,9.77
2023-05-03T03:43:35.685Z,10.63
2023-05-03T03:46:02.606Z,10.30
2023-05-03T03:48:29.546Z,11.70
2023-05-03T03:50:56.615Z,13.98
2023-05-03T03:53:23.814Z,11.45
2023-05-03T03:55:50.718Z,12.98
2023-05-03T03:58:17.646Z,12.93
2023-05-03T04:00:44.712Z,13.62
2023-05-03T04:03:11.977Z,15.00
2023-05-03T04:05:39.018Z,12.02
2023-05-03T04:08:06.414Z,12.48
2023-05-03T04:10:33.377Z,12.98
2023-05-03T04:13:00.415Z,13.15
2023-05-03T04:15:27.622Z,14.25
2023-05-03T04:17:54.651Z,10.95
2023-05-03T04:20:21.753Z,12.45
2023-05-03T04:22:48.687Z,13.20
2023-05-03T04:25:17.448Z,12.75
2023-05-03T04:27:45.557Z,17.23
2023-05-03T04:30:14.258Z,13.50
2023-05-03T04:32:42.894Z,13.05
2023-05-03T04:35:12.802Z,11.90
2023-05-03T04:37:42.167Z,14.02
2023-05-03T04:40:12.867Z,13.95
2023-05-03T04:42:39.787Z,13.52
2023-05-03T04:45:09.923Z,13.90
2023-05-03T04:47:37.333Z,11.32
2023-05-03T04:50:04.847Z,13.32
2023-05-03T04:52:32.204Z,14.73
2023-05-03T04:54:59.259Z,13.38
2023-05-03T04:57:26.314Z,14.15
2023-05-03T04:59:54.384Z,14.00
2023-05-03T05:02:21.930Z,13.27
2023-05-03T05:04:48.964Z,12.52
2023-05-03T05:07:16.363Z,16.87
2023-05-03T05:09:43.286Z,13.43
2023-05-03T05:12:10.295Z,14.45
2023-05-03T05:14:37.222Z,13.55
2023-05-03T05:17:04.243Z,16.12
2023-05-03T05:19:31.312Z,13.93
2023-05-03T05:21:58.249Z,14.80
2023-05-03T05:24:25.153Z,15.88
2023-05-03T05:26:52.279Z,15.57
2023-05-03T05:29:19.319Z,13.80
2023-05-03T05:31:46.462Z,14.00
2023-05-03T05:34:13.535Z,14.87
2023-05-03T05:36:40.496Z,13.15
2023-05-03T05:39:07.612Z,15.95
2023-05-03T05:41:34.621Z,15.52
2023-05-03T05:44:01.762Z,15.15
2023-05-03T05:46:28.759Z,14.90
2023-05-03T05:48:56.449Z,15.98
2023-05-03T05:51:27.224Z,15.55
2023-05-03T05:53:55.361Z,13.93
2023-05-03T05:56:22.375Z,13.23
2023-05-03T05:58:49.345Z,14.68
2023-05-03T06:01:16.633Z,15.32
2023-05-03T06:03:43.556Z,14.15
2023-05-03T06:06:12.094Z,13.10
2023-05-03T06:08:43.066Z,13.07
2023-05-03T06:11:10.380Z,16.05
2023-05-03T06:13:38.884Z,15.25
2023-05-03T06:16:06.353Z,15.18
2023-05-03T06:18:33.330Z,14.38
2023-05-03T06:21:00.327Z,14.50
2023-05-03T06:23:28.404Z,13.57
2023-05-03T06:25:55.463Z,13.80
2023-05-03T06:28:22.428Z,14.27
2023-05-03T06:30:50.501Z,16.50
2023-05-03T06:33:17.708Z,13.13
2023-05-03T06:35:47.343Z,15.15
2023-05-03T06:38:14.525Z,13.23
2023-05-03T06:40:44.252Z,13.07
2023-05-03T06:43:11.350Z,14.27
2023-05-03T06:45:40.139Z,14.95
2023-05-03T06:48:07.875Z,12.75
2023-05-03T06:50:35.135Z,13.13
2023-05-03T06:53:02.597Z,12.25
2023-05-03T06:55:29.640Z,13.00
2023-05-03T06:58:12.316Z,11.88
2023-05-03T07:00:40.281Z,13.13
2023-05-03T07:03:08.049Z,12.32
2023-05-03T07:05:35.213Z,13.52
2023-05-03T07:08:02.360Z,12.90
2023-05-03T07:10:31.629Z,13.48
2023-05-03T07:12:58.940Z,12.07
2023-05-03T07:15:26.182Z,13.52
2023-05-03T07:17:53.303Z,13.73
2023-05-03T07:20:21.895Z,14.73
2023-05-03T07:22:48.887Z,13.15
2023-05-03T07:25:18.054Z,13.50
2023-05-03T07:27:45.352Z,15.50
2023-05-03T07:30:12.653Z,15.82
2023-05-03T07:32:44.560Z,18.00
2023-05-03T07:35:11.841Z,15.15
2023-05-03T07:37:38.958Z,14.27
2023-05-03T07:40:07.599Z,15.27
2023-05-03T07:42:36.198Z,16.92
2023-05-03T07:45:03.342Z,15.55
2023-05-03T07:47:30.935Z,14.45
2023-05-03T07:49:58.012Z,14.18
2023-05-03T07:52:25.030Z,15.15
2023-05-03T07:54:53.549Z,14.00
2023-05-03T07:57:20.502Z,14.30
2023-05-03T07:59:47.862Z,15.95
2023-05-03T08:02:14.992Z,15.73
2023-05-03T08:04:42.358Z,14.50
2023-05-03T08:07:09.877Z,14.57
2023-05-03T08:09:36.956Z,19.85
2023-05-03T08:12:04.142Z,14.07
2023-05-03T08:14:31.191Z,13.90
2023-05-03T08:16:58.216Z,15.15
2023-05-03T08:19:26.684Z,14.00
2023-05-03T08:21:55.370Z,14.63
2023-05-03T08:24:26.848Z,17.02
2023-05-03T08:26:54.129Z,14.73
2023-05-03T08:29:21.438Z,14.98
2023-05-03T08:31:50.891Z,15.48
2023-05-03T08:34:18.004Z,17.55
2023-05-03T08:36:45.198Z,15.93
2023-05-03T08:39:12.461Z,15.07
2023-05-03T08:41:40.061Z,14.73
2023-05-03T08:44:08.767Z,16.67
2023-05-03T08:46:37.560Z,18.00
2023-05-03T08:49:09.382Z,16.67
2023-05-03T08:51:41.325Z,15.75
2023-05-03T08:54:08.915Z,14.15
2023-05-03T08:56:43.592Z,14.35
2023-05-03T08:59:14.323Z,15.07
2023-05-03T09:01:42.826Z,16.60
2023-05-03T09:04:11.528Z,15.68
2023-05-03T09:06:39.050Z,15.35
2023-05-03T09:09:08.671Z,15.25
2023-05-03T09:11:38.172Z,15.85
2023-05-03T09:14:14.179Z,15.23
2023-05-03T09:16:43.778Z,14.45
2023-05-03T09:19:12.801Z,14.82
2023-05-03T09:21:44.547Z,13.70
2023-05-03T09:24:19.365Z,15.18
2023-05-03T09:26:48.142Z,14.07
2023-05-03T09:29:48.692Z,14.77
2023-05-03T09:32:17.403Z,15.75
2023-05-03T09:34:45.630Z,13.85
2023-05-03T09:37:16.740Z,15.15
2023-05-03T09:39:46.766Z,12.60
2023-05-03T09:42:18.442Z,12.37
2023-05-03T09:44:54.347Z,13.13
2023-05-03T09:47:26.036Z,12.88
2023-05-03T09:49:53.150Z,12.95
2023-05-03T09:52:22.638Z,11.88
2023-05-03T09:54:51.822Z,12.55
2023-05-03T09:57:19.436Z,12.15
2023-05-03T09:59:47.237Z,12.15
2023-05-03T10:02:15.345Z,10.77
2023-05-03T10:04:47.945Z,14.45
2023-05-03T10:07:18.649Z,13.80
2023-05-03T10:09:49.008Z,11.65
2023-05-03T10:12:19.289Z,12.30
2023-05-03T10:14:50.035Z,13.00
2023-05-03T10:17:35.361Z,12.43
2023-05-03T10:20:41.730Z,11.85
2023-05-03T10:23:11.225Z,11.70
2023-05-03T10:25:40.471Z,13.77
2023-05-03T10:28:09.789Z,11.55
2023-05-03T10:30:40.859Z,11.10
2023-05-03T10:33:13.931Z,9.55
2023-05-03T10:35:43.241Z,10.80
2023-05-03T10:38:18.013Z,11.32
2023-05-03T10:40:45.175Z,10.02
2023-05-03T10:43:33.614Z,11.15
2023-05-03T10:46:29.566Z,10.10
2023-05-03T10:49:16.395Z,10.30
2023-05-03T10:51:45.754Z,12.23
2023-05-03T10:54:13.001Z,13.27
2023-05-03T10:57:01.803Z,10.75
2023-05-03T10:59:48.456Z,10.38
2023-05-03T11:02:21.706Z,10.07
2023-05-03T11:04:52.560Z,10.23
2023-05-03T11:07:24.980Z,8.95
2023-05-03T11:09:52.463Z,12.05
2023-05-03T11:12:20.024Z,10.10
2023-05-03T11:14:47.013Z,9.50
2023-05-03T11:17:14.287Z,8.48
2023-05-03T11:19:44.006Z,10.45
2023-05-03T11:24:39.719Z,9.27
2023-05-03T11:27:08.715Z,10.70
2023-05-03T11:29:36.426Z,7.80
2023-05-03T11:32:03.602Z,11.60
2023-05-03T11:34:31.482Z,8.32
2023-05-03T11:36:59.994Z,8.45
2023-05-03T11:39:28.613Z,7.40
2023-05-03T11:42:05.244Z,7.47
2023-05-03T11:44:32.460Z,9.80
2023-05-03T11:46:59.663Z,7.40
2023-05-03T11:49:26.899Z,7.25
2023-05-03T11:51:55.171Z,7.22
2023-05-03T11:54:26.960Z,7.22
2023-05-03T11:56:58.580Z,9.15
2023-05-03T11:59:37.346Z,7.47
2023-05-03T12:02:06.055Z,10.50
2023-05-03T12:04:33.603Z,8.93
2023-05-03T12:07:02.835Z,8.32
2023-05-03T12:09:31.586Z,8.52
2023-05-03T12:12:01.643Z,7.97
2023-05-03T12:14:30.148Z,7.85
2023-05-03T12:17:00.424Z,9.18
2023-05-03T12:19:32.918Z,9.80
2023-05-03T12:24:33.368Z,6.55
2023-05-03T12:29:34.809Z,7.75
2023-05-03T12:32:04.310Z,8.07
2023-05-03T12:34:35.705Z,8.82
2023-05-03T12:37:05.770Z,7.60
2023-05-03T12:42:07.998Z,6.53
2023-05-03T12:44:36.082Z,6.65
2023-05-03T12:47:04.619Z,6.50
2023-05-03T12:49:32.285Z,7.62
2023-05-03T12:52:34.757Z,5.62
2023-05-03T12:54:49.185Z,10.57
2023-05-03T12:57:22.898Z,5.93
2023-05-03T13:00:01.626Z,6.68
2023-05-03T13:05:01.065Z,6.47
2023-05-03T13:07:31.612Z,6.25
2023-05-03T13:12:32.807Z,7.90
2023-05-03T13:15:03.002Z,8.82
2023-05-03T13:17:32.558Z,6.87
2023-05-03T13:20:03.783Z,9.27
2023-05-03T13:23:24.084Z,7.62
2023-05-03T13:25:54.487Z,8.63
2023-05-03T13:30:51.541Z,6.57
2023-05-03T13:33:18.648Z,8.60
2023-05-03T13:35:48.147Z,8.50
2023-05-03T13:38:16.101Z,9.55
2023-05-03T13:40:43.187Z,8.23
2023-05-03T13:43:10.391Z,7.35
2023-05-03T13:45:37.402Z,8.82
2023-05-03T13:48:18.798Z,7.35
2023-05-03T13:50:46.575Z,13.05
2023-05-03T13:53:13.561Z,7.72
2023-05-03T13:55:41.077Z,7.12
2023-05-03T13:58:08.660Z,7.78
2023-05-03T14:00:36.923Z,7.87
2023-05-03T14:03:04.645Z,7.35
2023-05-03T14:05:31.780Z,8.15
2023-05-03T14:07:58.907Z,6.97
2023-05-03T14:10:26.477Z,6.95
2023-05-03T14:12:53.761Z,6.68
2023-05-03T14:15:20.986Z,11.65
2023-05-03T14:17:48.277Z,11.18
2023-05-03T14:20:17.998Z,8.38
2023-05-03T14:25:13.116Z,7.00
2023-05-03T14:27:40.524Z,7.75
2023-05-03T14:30:09.827Z,6.30
2023-05-03T14:32:37.102Z,9.13
2023-05-03T14:35:04.636Z,8.05
2023-05-03T14:37:31.861Z,8.00
2023-05-03T14:40:04.485Z,11.63
2023-05-03T14:42:33.360Z,8.15
2023-05-03T14:45:13.524Z,6.68
2023-05-03T14:47:41.868Z,7.68
2023-05-03T14:50:09.737Z,5.53
2023-05-03T14:52:38.138Z,7.57
2023-05-03T14:55:08.715Z,7.78
2023-05-03T14:57:36.574Z,8.07
2023-05-03T15:00:06.550Z,7.10
2023-05-03T15:02:34.000Z,7.55
2023-05-03T15:05:01.544Z,7.57
2023-05-03T15:07:28.748Z,7.47
2023-05-03T15:09:55.827Z,8.40
2023-05-03T15:12:22.795Z,8.60
2023-05-03T15:14:49.757Z,9.02
2023-05-03T15:17:16.898Z,8.20
2023-05-03T15:19:43.929Z,7.95
2023-05-03T15:22:10.880Z,7.97
2023-05-03T15:24:37.881Z,9.23
2023-05-03T15:27:04.970Z,6.43
2023-05-03T15:29:31.958Z,8.73
2023-05-03T15:31:58.948Z,7.25
2023-05-03T15:34:26.405Z,7.25
2023-05-03T15:36:53.354Z,7.85
2023-05-03T15:39:20.436Z,5.25
2023-05-03T15:41:47.460Z,6.70
2023-05-03T15:44:15.240Z,7.05
2023-05-03T15:46:43.033Z,9.10
2023-05-03T15:49:10.597Z,4.75
2023-05-03T15:51:37.825Z,5.70
2023-05-03T15:54:05.027Z,5.55
2023-05-03T15:56:32.661Z,7.82
2023-05-03T15:58:59.882Z,5.32
2023-05-03T16:01:27.190Z,5.30
2023-05-03T16:03:54.284Z,5.87
2023-05-03T16:06:21.309Z,6.85
2023-05-03T16:08:48.250Z,5.57
2023-05-03T16:11:15.313Z,6.00
2023-05-03T16:13:42.405Z,7.55
2023-05-03T16:16:09.429Z,6.20
2023-05-03T16:18:36.550Z,6.32
2023-05-03T16:21:03.775Z,7.60
2023-05-03T16:23:30.739Z,5.37
2023-05-03T16:25:57.758Z,7.57
2023-05-03T16:28:24.797Z,6.72
2023-05-03T16:30:52.135Z,5.62
2023-05-03T16:33:19.753Z,5.65
2023-05-03T16:35:46.694Z,8.05
2023-05-03T16:38:13.735Z,4.00
2023-05-03T16:40:40.909Z,5.72
2023-05-03T16:43:07.966Z,6.93
2023-05-03T16:45:35.081Z,5.55
2023-05-03T16:48:04.502Z,4.72
2023-05-03T16:50:33.187Z,7.20
2023-05-03T16:53:00.205Z,7.32
2023-05-03T16:55:27.215Z,6.43
2023-05-03T16:57:54.204Z,6.37
2023-05-03T17:00:21.998Z,4.30
2023-05-03T17:02:49.178Z,3.70
2023-05-03T17:05:16.316Z,4.57
2023-05-03T17:07:43.249Z,10.77
2023-05-03T17:10:10.718Z,8.40
2023-05-03T17:12:37.862Z,7.55
2023-05-03T17:15:05.333Z,6.95
2023-05-03T17:17:32.921Z,6.70
2023-05-03T17:19:59.977Z,5.75
2023-05-03T17:22:26.949Z,5.30
2023-05-03T17:24:55.460Z,6.70
2023-05-03T17:27:24.408Z,8.20
2023-05-03T17:29:51.680Z,6.07
2023-05-03T17:32:18.590Z,6.10
2023-05-03T17:34:45.550Z,6.37
2023-05-03T17:37:12.469Z,6.22
2023-05-03T17:39:39.757Z,5.65
2023-05-03T17:42:06.697Z,8.35
2023-05-03T17:44:33.808Z,11.95
2023-05-03T17:47:01.124Z,11.15
2023-05-03T17:49:28.128Z,7.93
2023-05-03T17:51:55.127Z,10.13
2023-05-03T17:54:22.024Z,12.37
2023-05-03T17:56:48.997Z,9.07
2023-05-03T17:59:18.962Z,8.30
2023-05-03T18:01:48.120Z,8.68
2023-05-03T18:04:15.582Z,8.68
2023-05-03T18:06:42.534Z,7.00
2023-05-03T18:09:09.499Z,8.20
2023-05-03T18:11:36.486Z,7.47
2023-05-03T18:14:04.090Z,7.37
2023-05-03T18:16:31.735Z,9.32
2023-05-03T18:18:58.773Z,8.02
2023-05-03T18:21:27.912Z,10.50
2023-05-03T18:23:54.906Z,8.05
2023-05-03T18:26:21.858Z,14.23
2023-05-03T18:28:49.437Z,8.02
2023-05-03T18:31:17.456Z,8.70
2023-05-03T18:33:44.426Z,9.60
2023-05-03T18:36:12.220Z,8.00
2023-05-03T18:38:39.641Z,7.32
2023-05-03T18:41:14.561Z,9.38
2023-05-03T18:43:46.544Z,10.13
2023-05-03T18:46:20.156Z,9.45
2023-05-03T18:48:48.064Z,8.68
2023-05-03T18:51:14.992Z,8.80
2023-05-03T18:53:41.925Z,7.97
2023-05-03T18:56:08.920Z,7.85
2023-05-03T18:58:36.006Z,9.02
2023-05-03T19:01:04.965Z,8.38
2023-05-03T19:03:32.061Z,11.40
2023-05-03T19:06:09.334Z,11.15
2023-05-03T19:08:36.220Z,8.85
2023-05-03T19:11:13.744Z,9.15
2023-05-03T19:13:50.260Z,10.20
2023-05-03T19:16:17.615Z,11.18
2023-05-03T19:18:45.663Z,8.32
2023-05-03T19:21:12.768Z,8.75
2023-05-03T19:23:39.717Z,8.25
2023-05-03T19:26:06.714Z,10.25
2023-05-03T19:28:33.766Z,7.20
2023-05-03T19:31:07.201Z,7.50
2023-05-03T19:33:34.229Z,10.05
2023-05-03T19:36:06.961Z,7.37
2023-05-03T19:38:36.641Z,8.93
2023-05-03T19:43:36.766Z,13.20
2023-05-03T19:46:03.754Z,12.10
2023-05-03T19:48:31.129Z,12.63
2023-05-03T19:50:59.068Z,15.27
2023-05-03T19:53:26.827Z,9.93
2023-05-03T19:56:01.381Z,9.15
2023-05-03T19:58:28.775Z,10.90
2023-05-03T20:00:58.676Z,8.20
2023-05-03T20:03:25.849Z,11.68
2023-05-03T20:05:52.928Z,11.05
2023-05-03T20:08:20.013Z,10.40
2023-05-03T20:10:47.008Z,9.68
2023-05-03T20:13:14.187Z,11.75
2023-05-03T20:15:41.802Z,11.98
2023-05-03T20:18:09.033Z,12.10
2023-05-03T20:20:36.889Z,11.90
2023-05-03T20:23:03.790Z,12.25
2023-05-03T20:25:30.726Z,9.77
2023-05-03T20:27:58.075Z,10.82
2023-05-03T20:30:25.488Z,11.40
2023-05-03T20:32:52.594Z,15.00
2023-05-03T20:35:19.722Z,12.23
2023-05-03T20:37:46.755Z,12.32
2023-05-03T20:40:13.664Z,11.88
2023-05-03T20:42:40.666Z,12.77
2023-05-03T20:45:08.107Z,10.57
2023-05-03T20:47:35.137Z,11.52
2023-05-03T20:50:02.401Z,11.55
2023-05-03T20:52:29.463Z,12.00
2023-05-03T20:54:56.385Z,12.32
2023-05-03T20:57:23.328Z,14.63
2023-05-03T20:59:50.246Z,12.05
2023-05-03T21:02:17.235Z,16.87
2023-05-03T21:04:44.227Z,15.52
2023-05-03T21:07:11.249Z,14.70
2023-05-03T21:09:38.836Z,13.95
2023-05-03T21:12:06.058Z,13.95
2023-05-03T21:14:32.989Z,9.63
2023-05-03T21:17:01.624Z,10.68
2023-05-03T21:19:28.616Z,9.93
2023-05-03T21:21:55.612Z,12.00
2023-05-03T21:24:25.803Z,9.57
2023-05-03T21:26:52.725Z,9.27
2023-05-03T21:29:19.715Z,11.50
2023-05-03T21:31:46.699Z,10.05
2023-05-03T21:34:13.648Z,8.38
2023-05-03T21:36:40.576Z,8.50
2023-05-03T21:39:07.711Z,7.80
2023-05-03T21:41:35.040Z,7.55
2023-05-03T21:44:02.469Z,9.25
2023-05-03T21:46:29.468Z,12.20
2023-05-03T21:48:56.442Z,8.07
2023-05-03T21:51:23.505Z,9.38
2023-05-03T21:53:50.603Z,8.68
2023-05-03T21:56:17.619Z,8.85
2023-05-03T21:58:45.778Z,10.23
2023-05-03T22:01:15.455Z,11.15
2023-05-03T22:06:09.832Z,14.00
2023-05-03T22:08:37.112Z,10.60
2023-05-03T22:11:07.416Z,12.05
2023-05-03T22:13:43.189Z,10.85
2023-05-03T22:16:18.502Z,11.35
2023-05-03T22:18:45.539Z,13.30
2023-05-03T22:21:12.569Z,12.63
2023-05-03T22:23:39.454Z,14.32
2023-05-03T22:26:06.501Z,16.33
2023-05-03T22:28:33.641Z,15.48
2023-05-03T22:31:00.593Z,15.23
2023-05-03T22:33:27.556Z,17.52
2023-05-03T22:35:54.498Z,23.12
2023-05-03T22:38:22.028Z,23.83
2023-05-03T22:40:48.994Z,20.48
2023-05-03T22:43:16.162Z,12.93
2023-05-03T22:45:43.531Z,13.18
2023-05-03T22:48:10.648Z,15.93
2023-05-03T22:50:37.685Z,15.30
2023-05-03T22:53:04.691Z,16.20
2023-05-03T22:55:31.584Z,13.23
2023-05-03T22:57:58.534Z,13.57
2023-05-03T23:00:25.621Z,13.82
2023-05-03T23:02:52.745Z,12.52
2023-05-03T23:05:19.854Z,13.02
2023-05-03T23:07:46.811Z,11.85
2023-05-03T23:10:14.048Z,14.57
2023-05-03T23:12:41.296Z,14.73
2023-05-03T23:15:08.566Z,12.50
2023-05-03T23:17:35.528Z,11.88
2023-05-03T23:20:02.879Z,14.90
2023-05-03T23:22:30.188Z,12.80
2023-05-03T23:24:57.089Z,13.45
2023-05-03T23:27:24.066Z,12.02
2023-05-03T23:29:52.177Z,11.90
2023-05-03T23:32:19.782Z,12.40
2023-05-03T23:34:46.975Z,13.02
2023-05-03T23:37:13.936Z,13.02
2023-05-03T23:39:45.128Z,14.00
2023-05-03T23:42:13.069Z,14.85
2023-05-03T23:44:53.825Z,14.65
2023-05-03T23:47:22.538Z,15.07
2023-05-03T23:49:49.751Z,15.60
2023-05-03T23:52:20.619Z,13.75
2023-05-03T23:54:47.691Z,13.85
2023-05-03T23:57:14.599Z,13.45
2023-05-03T23:59:41.503Z,13.68
